createdAt,value
2022-08-05T00:01:35.714Z,101023.60
2022-08-05T00:04:08.200Z,101019.40
2022-08-05T00:06:36.399Z,101022.40
2022-08-05T00:09:05.429Z,101022.80
2022-08-05T00:11:49.404Z,101021.40
2022-08-05T00:14:27.658Z,101020.60
2022-08-05T00:16:57.738Z,101017.20
2022-08-05T00:19:33.699Z,101019.00
2022-08-05T00:22:11.442Z,101022.60
2022-08-05T00:24:42.226Z,101014.40
2022-08-05T00:27:16.600Z,101018.00
2022-08-05T00:29:45.062Z,101025.60
2022-08-05T00:32:14.906Z,101024.00
2022-08-05T00:35:04.725Z,101024.60
2022-08-05T00:37:51.159Z,101021.80
2022-08-05T00:40:27.467Z,101028.40
2022-08-05T00:43:02.477Z,101033.40
2022-08-05T00:45:42.944Z,101034.20
2022-08-05T00:48:15.637Z,101032.00
2022-08-05T00:50:46.990Z,101033.40
2022-08-05T00:54:01.296Z,101029.20
2022-08-05T00:56:08.198Z,101026.40
2022-08-05T00:58:37.116Z,101024.80
2022-08-05T01:01:08.760Z,101029.20
2022-08-05T01:03:39.938Z,101030.40
2022-08-05T01:06:14.100Z,101032.80
2022-08-05T01:08:44.582Z,101034.40
2022-08-05T01:11:22.389Z,101034.40
2022-08-05T01:14:28.445Z,101036.80
2022-08-05T01:17:23.652Z,101037.60
2022-08-05T01:20:11.513Z,101035.60
2022-08-05T01:23:00.607Z,101031.40
2022-08-05T01:26:10.401Z,101031.80
2022-08-05T01:28:43.554Z,101031.00
2022-08-05T01:31:26.323Z,101030.40
2022-08-05T01:34:08.508Z,101033.40
2022-08-05T01:36:47.133Z,101030.80
2022-08-05T01:39:46.030Z,101037.80
2022-08-05T01:42:10.329Z,101035.20
2022-08-05T01:44:43.043Z,101039.40
2022-08-05T01:47:19.072Z,101036.40
2022-08-05T01:50:01.567Z,101028.00
2022-08-05T01:52:35.315Z,101044.00
2022-08-05T01:55:11.474Z,101041.80
2022-08-05T01:58:11.541Z,101038.00
2022-08-05T02:00:36.872Z,101045.80
2022-08-05T02:03:24.509Z,101052.80
2022-08-05T02:06:03.637Z,101056.00
2022-08-05T02:08:57.935Z,101052.40
2022-08-05T02:11:37.639Z,101058.20
2022-08-05T02:14:21.156Z,101048.60
2022-08-05T02:16:56.549Z,101065.80
2022-08-05T02:19:47.636Z,101072.80
2022-08-05T02:22:30.402Z,101084.40
2022-08-05T02:25:17.717Z,101089.80
2022-08-05T02:27:59.617Z,101098.80
2022-08-05T02:30:37.307Z,101102.00
2022-08-05T02:33:24.142Z,101104.00
2022-08-05T02:36:00.650Z,101102.60
2022-08-05T02:38:35.428Z,101103.20
2022-08-05T02:41:14.695Z,101110.00
2022-08-05T02:44:06.084Z,101100.80
2022-08-05T02:46:53.366Z,101111.20
2022-08-05T02:49:36.169Z,101113.40
2022-08-05T02:52:29.501Z,101127.20
2022-08-05T02:55:02.019Z,101120.60
2022-08-05T02:58:20.459Z,101122.20
2022-08-05T03:00:25.418Z,101125.40
2022-08-05T03:02:58.124Z,101125.60
2022-08-05T03:06:53.576Z,101126.00
2022-08-05T03:08:16.887Z,101131.00
2022-08-05T03:11:41.169Z,101122.20
2022-08-05T03:13:52.238Z,101125.80
2022-08-05T03:16:31.628Z,101129.60
2022-08-05T03:19:01.555Z,101128.20
2022-08-05T03:21:41.679Z,101136.00
2022-08-05T03:24:29.688Z,101136.80
2022-08-05T03:27:00.239Z,101133.40
2022-08-05T03:29:44.827Z,101135.80
2022-08-05T03:32:19.561Z,101140.60
2022-08-05T03:34:50.755Z,101140.80
2022-08-05T03:37:23.655Z,101145.00
2022-08-05T03:40:01.662Z,101141.00
2022-08-05T03:42:32.227Z,101144.20
2022-08-05T03:45:01.903Z,101148.00
2022-08-05T03:47:49.265Z,101144.00
2022-08-05T03:50:18.210Z,101149.80
2022-08-05T03:55:51.304Z,101143.60
2022-08-05T03:56:35.225Z,101147.80
2022-08-05T03:59:10.935Z,101148.40
2022-08-05T04:01:45.965Z,101150.60
2022-08-05T04:04:21.118Z,101155.00
2022-08-05T04:06:51.770Z,101151.60
2022-08-05T04:09:26.174Z,101156.00
2022-08-05T04:11:57.111Z,101158.40
2022-08-05T04:14:30.513Z,101158.00
2022-08-05T04:17:00.369Z,101159.20
2022-08-05T04:19:29.617Z,101154.00
2022-08-05T04:22:10.118Z,101158.40
2022-08-05T04:24:52.988Z,101156.40
2022-08-05T04:27:41.546Z,101161.20
2022-08-05T04:30:10.400Z,101166.80
2022-08-05T04:32:38.992Z,101168.60
2022-08-05T04:35:19.363Z,101169.60
2022-08-05T04:38:02.810Z,101180.40
2022-08-05T04:40:50.549Z,101180.60
2022-08-05T04:43:21.937Z,101179.60
2022-08-05T04:45:54.926Z,101180.80
2022-08-05T04:48:27.237Z,101186.00
2022-08-05T04:51:01.836Z,101185.60
2022-08-05T04:53:33.649Z,101183.40
2022-08-05T04:56:33.743Z,101185.60
2022-08-05T04:58:51.736Z,101188.20
2022-08-05T05:02:05.574Z,101190.60
2022-08-05T05:04:08.370Z,101191.00
2022-08-05T05:06:44.339Z,101199.80
2022-08-05T05:09:14.055Z,101203.20
2022-08-05T05:11:54.457Z,101202.40
2022-08-05T05:14:31.569Z,101209.20
2022-08-05T05:17:03.717Z,101215.40
2022-08-05T05:19:36.947Z,101216.00
2022-08-05T05:22:23.591Z,101220.60
2022-08-05T05:24:57.573Z,101225.60
2022-08-05T05:27:41.677Z,101232.00
2022-08-05T05:30:30.717Z,101240.60
2022-08-05T05:33:15.857Z,101244.80
2022-08-05T05:35:47.686Z,101245.20
2022-08-05T05:38:27.266Z,101244.00
2022-08-05T05:40:57.033Z,101242.00
2022-08-05T05:43:54.583Z,101249.00
2022-08-05T05:46:17.405Z,101243.60
2022-08-05T05:48:48.672Z,101252.80
2022-08-05T05:51:25.595Z,101254.20
2022-08-05T05:53:59.013Z,101259.60
2022-08-05T05:56:31.498Z,101264.00
2022-08-05T05:59:10.416Z,101260.20
2022-08-05T06:01:57.818Z,101270.00
2022-08-05T06:04:25.958Z,101267.00
2022-08-05T06:06:54.428Z,101266.00
2022-08-05T06:09:25.677Z,101260.40
2022-08-05T06:12:10.235Z,101260.00
2022-08-05T06:14:40.197Z,101262.60
2022-08-05T06:17:22.282Z,101261.20
2022-08-05T06:19:57.190Z,101266.40
2022-08-05T06:22:33.885Z,101261.40
2022-08-05T06:25:59.409Z,101261.20
2022-08-05T06:28:11.644Z,101265.20
2022-08-05T06:30:43.341Z,101265.00
2022-08-05T06:33:11.038Z,101262.80
2022-08-05T06:36:07.012Z,101263.40
2022-08-05T06:38:36.799Z,101266.80
2022-08-05T06:41:08.126Z,101267.60
2022-08-05T06:43:58.654Z,101273.00
2022-08-05T06:46:30.289Z,101269.80
2022-08-05T06:49:01.232Z,101273.80
2022-08-05T06:51:31.292Z,101272.00
2022-08-05T06:54:02.509Z,101273.80
2022-08-05T06:56:33.374Z,101272.80
2022-08-05T06:59:09.632Z,101272.80
2022-08-05T07:01:40.542Z,101280.80
2022-08-05T07:04:09.469Z,101282.20
2022-08-05T07:06:37.918Z,101282.60
2022-08-05T07:09:06.201Z,101282.00
2022-08-05T07:11:36.739Z,101279.40
2022-08-05T07:14:30.168Z,101281.40
2022-08-05T07:17:58.902Z,101288.60
2022-08-05T07:20:31.759Z,101290.60
2022-08-05T07:22:39.214Z,101293.60
2022-08-05T07:25:21.909Z,101294.20
2022-08-05T07:27:58.634Z,101292.40
2022-08-05T07:30:39.149Z,101294.60
2022-08-05T07:33:15.946Z,101297.20
2022-08-05T07:36:01.939Z,101296.00
2022-08-05T07:38:43.561Z,101294.60
2022-08-05T07:42:14.288Z,101296.40
2022-08-05T07:44:14.158Z,101290.40
2022-08-05T07:46:49.656Z,101298.00
2022-08-05T07:49:19.532Z,101297.20
2022-08-05T07:51:53.666Z,101296.80
2022-08-05T07:54:31.043Z,101302.20
2022-08-05T07:57:41.801Z,101303.80
2022-08-05T07:59:52.116Z,101300.20
2022-08-05T08:02:30.770Z,101299.80
2022-08-05T08:05:01.229Z,101301.40
2022-08-05T08:07:39.609Z,101306.60
2022-08-05T08:10:20.547Z,101310.20
2022-08-05T08:12:50.433Z,101308.20
2022-08-05T08:15:18.202Z,101307.60
2022-08-05T08:18:09.920Z,101304.20
2022-08-05T08:21:00.187Z,101309.40
2022-08-05T08:24:01.004Z,101301.00
2022-08-05T08:26:17.879Z,101309.80
2022-08-05T08:29:22.285Z,101309.60
2022-08-05T08:31:47.485Z,101318.80
2022-08-05T08:34:30.736Z,101316.80
2022-08-05T08:37:04.566Z,101315.40
2022-08-05T08:39:37.340Z,101318.60
2022-08-05T08:42:32.635Z,101323.60
2022-08-05T08:45:21.058Z,101321.20
2022-08-05T08:48:07.566Z,101312.80
2022-08-05T08:51:03.583Z,101316.00
2022-08-05T08:53:41.576Z,101318.80
2022-08-05T08:56:13.061Z,101321.00
2022-08-05T08:58:47.836Z,101323.00
2022-08-05T09:01:19.272Z,101321.20
2022-08-05T09:03:57.572Z,101317.80
2022-08-05T09:06:30.499Z,101315.80
2022-08-05T09:09:01.840Z,101314.40
2022-08-05T09:11:53.430Z,101313.80
2022-08-05T09:14:56.769Z,101311.00
2022-08-05T09:17:41.220Z,101308.80
2022-08-05T09:20:04.613Z,101304.00
2022-08-05T09:23:05.315Z,101296.20
2022-08-05T09:26:00.969Z,101295.80
2022-08-05T09:28:32.641Z,101294.60
2022-08-05T09:31:18.277Z,101294.20
2022-08-05T09:34:06.615Z,101285.20
2022-08-05T09:36:56.369Z,101292.20
2022-08-05T09:39:41.917Z,101299.20
2022-08-05T09:42:24.329Z,101301.00
2022-08-05T09:45:17.962Z,101293.40
2022-08-05T09:47:56.166Z,101293.60
2022-08-05T09:50:38.564Z,101291.60
2022-08-05T09:53:22.831Z,101284.00
2022-08-05T09:56:04.057Z,101288.20
2022-08-05T09:58:32.920Z,101292.20
2022-08-05T10:01:14.974Z,101287.20
2022-08-05T10:04:17.487Z,101288.20
2022-08-05T10:06:59.336Z,101289.80
2022-08-05T10:09:29.782Z,101291.80
2022-08-05T10:12:18.573Z,101284.60
2022-08-05T10:15:38.708Z,101285.20
2022-08-05T10:18:16.955Z,101282.00
2022-08-05T10:20:51.899Z,101276.00
2022-08-05T10:23:56.411Z,101281.00
2022-08-05T10:26:18.503Z,101284.00
2022-08-05T10:28:47.881Z,101284.40
2022-08-05T10:32:55.165Z,101280.40
2022-08-05T10:34:10.006Z,101274.00
2022-08-05T10:36:41.705Z,101276.80
2022-08-05T10:40:03.585Z,101275.00
2022-08-05T10:42:33.544Z,101278.80
2022-08-05T10:45:21.521Z,101280.20
2022-08-05T10:48:29.175Z,101278.20
2022-08-05T10:51:22.258Z,101279.00
2022-08-05T10:53:50.582Z,101275.40
2022-08-05T10:56:26.172Z,101283.60
2022-08-05T10:58:54.032Z,101284.80
2022-08-05T11:01:55.363Z,101275.20
2022-08-05T11:04:26.300Z,101275.40
2022-08-05T11:07:01.479Z,101272.00
2022-08-05T11:09:46.374Z,101269.40
2022-08-05T11:12:24.713Z,101268.40
2022-08-05T11:15:19.103Z,101266.60
2022-08-05T11:17:59.309Z,101268.00
2022-08-05T11:20:46.404Z,101271.40
2022-08-05T11:24:04.360Z,101272.00
2022-08-05T11:26:38.974Z,101267.20
2022-08-05T11:29:34.632Z,101261.40
2022-08-05T11:32:29.203Z,101258.20
2022-08-05T11:34:57.953Z,101257.60
2022-08-05T11:38:30.351Z,101265.80
2022-08-05T11:41:12.958Z,101259.80
2022-08-05T11:44:08.466Z,101256.80
2022-08-05T11:47:09.579Z,101259.60
2022-08-05T11:49:42.996Z,101263.20
2022-08-05T11:52:11.502Z,101261.40
2022-08-05T11:54:41.578Z,101262.00
2022-08-05T11:57:24.887Z,101256.20
2022-08-05T11:59:54.804Z,101248.20
2022-08-05T12:02:33.748Z,101262.00
2022-08-05T12:05:06.745Z,101257.20
2022-08-05T12:08:09.333Z,101256.40
2022-08-05T12:10:43.128Z,101253.00
2022-08-05T12:13:18.942Z,101241.20
2022-08-05T12:16:14.786Z,101245.20
2022-08-05T12:18:52.280Z,101244.60
2022-08-05T12:21:31.859Z,101247.20
2022-08-05T12:24:14.139Z,101245.00
2022-08-05T12:26:53.452Z,101234.40
2022-08-05T12:29:38.897Z,101230.20
2022-08-05T12:32:07.409Z,101231.80
2022-08-05T12:34:38.510Z,101232.40
2022-08-05T12:37:17.337Z,101232.20
2022-08-05T12:39:54.015Z,101229.00
2022-08-05T12:42:25.363Z,101219.80
2022-08-05T12:45:13.224Z,101228.00
2022-08-05T12:48:17.624Z,101226.00
2022-08-05T12:50:33.004Z,101226.00
2022-08-05T12:53:00.759Z,101231.00
2022-08-05T12:55:32.744Z,101226.60
2022-08-05T12:58:38.672Z,101227.80
2022-08-05T13:02:00.555Z,101226.60
2022-08-05T13:03:43.122Z,101221.40
2022-08-05T13:06:17.393Z,101230.00
2022-08-05T13:08:52.227Z,101223.40
2022-08-05T13:12:01.696Z,101224.80
2022-08-05T13:14:24.485Z,101223.00
2022-08-05T13:16:59.479Z,101218.40
2022-08-05T13:19:50.990Z,101214.00
2022-08-05T13:22:28.491Z,101208.20
2022-08-05T13:25:05.715Z,101211.00
2022-08-05T13:27:49.482Z,101211.00
2022-08-05T13:30:33.725Z,101208.80
2022-08-05T13:33:04.856Z,101218.40
2022-08-05T13:35:47.567Z,101216.80
2022-08-05T13:38:31.096Z,101224.00
2022-08-05T13:41:04.071Z,101220.00
2022-08-05T13:43:44.020Z,101209.20
2022-08-05T13:46:35.806Z,101207.00
2022-08-05T13:49:10.523Z,101200.40
2022-08-05T13:51:46.119Z,101202.00
2022-08-05T13:54:21.035Z,101205.60
2022-08-05T13:56:53.617Z,101199.20
2022-08-05T13:59:24.186Z,101192.80
2022-08-05T14:02:00.010Z,101186.00
2022-08-05T14:04:51.124Z,101186.00
2022-08-05T14:07:56.979Z,101186.60
2022-08-05T14:10:19.013Z,101186.00
2022-08-05T14:12:56.985Z,101181.00
2022-08-05T14:16:06.816Z,101184.80
2022-08-05T14:18:18.506Z,101181.00
2022-08-05T14:20:54.586Z,101176.00
2022-08-05T14:23:25.913Z,101167.00
2022-08-05T14:25:58.014Z,101162.60
2022-08-05T14:28:30.915Z,101165.60
2022-08-05T14:31:00.749Z,101172.00
2022-08-05T14:33:32.476Z,101170.80
2022-08-05T14:36:21.495Z,101171.60
2022-08-05T14:38:51.738Z,101169.20
2022-08-05T14:41:19.864Z,101176.40
2022-08-05T14:44:02.221Z,101169.60
2022-08-05T14:46:37.819Z,101157.80
2022-08-05T14:49:08.056Z,101153.60
2022-08-05T14:51:42.541Z,101147.20
2022-08-05T14:54:27.547Z,101152.60
2022-08-05T14:56:59.232Z,101151.60
2022-08-05T14:59:29.425Z,101149.80
2022-08-05T15:02:15.936Z,101157.60
2022-08-05T15:04:45.000Z,101150.00
2022-08-05T15:08:04.573Z,101143.80
2022-08-05T15:10:04.289Z,101153.40
2022-08-05T15:12:57.997Z,101159.60
2022-08-05T15:15:54.029Z,101155.00
2022-08-05T15:18:17.269Z,101153.20
2022-08-05T15:20:46.154Z,101152.60
2022-08-05T15:23:15.553Z,101150.40
2022-08-05T15:25:52.265Z,101148.80
2022-08-05T15:28:26.963Z,101147.20
2022-08-05T15:30:56.324Z,101149.20
2022-08-05T15:34:19.271Z,101144.60
2022-08-05T15:36:17.737Z,101139.20
2022-08-05T15:41:03.676Z,101133.00
2022-08-05T15:41:58.501Z,101130.20
2022-08-05T15:44:30.311Z,101125.60
2022-08-05T15:47:01.869Z,101128.40
2022-08-05T15:49:53.528Z,101126.40
2022-08-05T15:52:51.646Z,101124.00
2022-08-05T15:55:16.262Z,101126.00
2022-08-05T15:57:45.198Z,101113.60
2022-08-05T16:00:16.685Z,101113.20
2022-08-05T16:02:45.181Z,101112.40
2022-08-05T16:05:13.364Z,101118.40
2022-08-05T16:07:46.645Z,101114.60
2022-08-05T16:10:17.337Z,101118.80
2022-08-05T16:12:53.366Z,101114.00
2022-08-05T16:15:24.527Z,101106.20
2022-08-05T16:18:00.338Z,101102.60
2022-08-05T16:20:28.223Z,101108.80
2022-08-05T16:22:57.464Z,101106.00
2022-08-05T16:25:33.809Z,101111.40
2022-08-05T16:28:06.483Z,101112.40
2022-08-05T16:30:37.890Z,101113.00
2022-08-05T16:33:05.646Z,101109.20
2022-08-05T16:35:34.607Z,101111.40
2022-08-05T16:38:18.487Z,101113.40
2022-08-05T16:40:59.812Z,101115.00
2022-08-05T16:43:33.509Z,101113.00
2022-08-05T16:46:23.912Z,101110.80
2022-08-05T16:48:52.736Z,101104.80
2022-08-05T16:51:20.651Z,101103.00
2022-08-05T16:54:04.274Z,101102.00
2022-08-05T16:56:41.548Z,101104.60
2022-08-05T16:59:10.543Z,101098.80
2022-08-05T17:01:53.671Z,101106.00
2022-08-05T17:04:28.228Z,101105.40
2022-08-05T17:07:01.070Z,101103.00
2022-08-05T17:09:57.745Z,101092.40
2022-08-05T17:12:50.380Z,101101.00
2022-08-05T17:15:09.262Z,101095.40
2022-08-05T17:17:42.294Z,101097.80
2022-08-05T17:20:14.538Z,101090.20
2022-08-05T17:22:44.940Z,101090.60
2022-08-05T17:25:22.168Z,101094.80
2022-08-05T17:28:00.738Z,101091.60
2022-08-05T17:30:29.256Z,101093.20
2022-08-05T17:32:57.084Z,101091.40
2022-08-05T17:35:24.831Z,101093.20
2022-08-05T17:38:05.006Z,101090.00
2022-08-05T17:40:32.898Z,101090.20
2022-08-05T17:43:00.639Z,101087.20
2022-08-05T17:45:38.062Z,101096.20
2022-08-05T17:48:08.034Z,101091.80
2022-08-05T17:50:36.305Z,101092.60
2022-08-05T17:53:05.583Z,101099.40
2022-08-05T17:55:39.681Z,101102.60
2022-08-05T17:58:13.324Z,101107.60
2022-08-05T18:00:47.770Z,101112.00
2022-08-05T18:03:55.901Z,101113.40
2022-08-05T18:06:11.808Z,101113.00
2022-08-05T18:08:46.217Z,101113.80
2022-08-05T18:11:23.663Z,101114.80
2022-08-05T18:13:54.084Z,101115.20
2022-08-05T18:16:21.852Z,101119.40
2022-08-05T18:18:50.743Z,101125.00
2022-08-05T18:21:19.992Z,101128.20
2022-08-05T18:23:53.779Z,101131.20
2022-08-05T18:26:29.585Z,101131.40
2022-08-05T18:29:00.991Z,101131.00
2022-08-05T18:31:33.888Z,101131.20
2022-08-05T18:34:06.214Z,101137.40
2022-08-05T18:36:41.304Z,101135.00
2022-08-05T18:39:42.345Z,101136.40
2022-08-05T18:42:04.922Z,101132.20
2022-08-05T18:44:48.897Z,101123.20
2022-08-05T18:47:19.552Z,101137.80
2022-08-05T18:50:10.747Z,101135.00
2022-08-05T18:52:50.476Z,101133.20
2022-08-05T18:55:21.551Z,101133.00
2022-08-05T18:57:53.410Z,101127.60
2022-08-05T19:00:28.892Z,101132.00
2022-08-05T19:03:04.041Z,101136.40
2022-08-05T19:06:11.944Z,101133.20
2022-08-05T19:08:30.999Z,101139.00
2022-08-05T19:11:04.621Z,101147.20
2022-08-05T19:13:35.576Z,101139.00
2022-08-05T19:16:25.223Z,101146.20
2022-08-05T19:18:56.420Z,101142.80
2022-08-05T19:21:27.520Z,101148.60
2022-08-05T19:24:12.636Z,101135.40
2022-08-05T19:26:54.917Z,101149.60
2022-08-05T19:29:35.510Z,101149.60
2022-08-05T19:32:11.074Z,101152.00
2022-08-05T19:34:39.715Z,101163.00
2022-08-05T19:37:10.215Z,101156.60
2022-08-05T19:39:45.874Z,101158.00
2022-08-05T19:42:34.971Z,101166.20
2022-08-05T19:45:06.467Z,101168.20
2022-08-05T19:47:37.433Z,101167.60
2022-08-05T19:50:07.903Z,101174.80
2022-08-05T19:52:40.679Z,101173.00
2022-08-05T19:56:13.796Z,101178.00
2022-08-05T19:58:14.605Z,101176.80
2022-08-05T20:00:45.511Z,101176.40
2022-08-05T20:03:13.755Z,101184.60
2022-08-05T20:05:50.234Z,101175.80
2022-08-05T20:08:20.444Z,101177.60
2022-08-05T20:10:54.392Z,101174.40
2022-08-05T20:13:54.937Z,101174.80
2022-08-05T20:16:10.679Z,101179.60
2022-08-05T20:18:39.058Z,101169.20
2022-08-05T20:21:07.977Z,101167.60
2022-08-05T20:23:51.392Z,101166.80
2022-08-05T20:26:24.899Z,101171.80
2022-08-05T20:28:57.675Z,101174.80
2022-08-05T20:31:42.868Z,101181.60
2022-08-05T20:34:17.146Z,101189.20
2022-08-05T20:36:45.439Z,101191.40
2022-08-05T20:39:16.143Z,101177.00
2022-08-05T20:41:47.973Z,101178.40
2022-08-05T20:44:30.316Z,101184.40
2022-08-05T20:47:03.500Z,101185.60
2022-08-05T20:49:33.265Z,101191.40
2022-08-05T20:52:10.491Z,101196.60
2022-08-05T20:54:43.442Z,101201.80
2022-08-05T20:57:43.212Z,101192.40
2022-08-05T21:00:40.351Z,101198.80
2022-08-05T21:03:07.005Z,101190.00
2022-08-05T21:05:54.109Z,101193.60
2022-08-05T21:08:35.870Z,101199.20
2022-08-05T21:11:12.586Z,101198.60
2022-08-05T21:13:56.440Z,101206.00
2022-08-05T21:16:29.877Z,101203.80
2022-08-05T21:19:00.898Z,101211.80
2022-08-05T21:21:43.956Z,101208.60
2022-08-05T21:24:19.560Z,101211.80
2022-08-05T21:26:56.148Z,101215.00
2022-08-05T21:29:31.406Z,101217.60
2022-08-05T21:32:04.545Z,101220.00
2022-08-05T21:34:32.926Z,101214.80
2022-08-05T21:37:04.932Z,101217.40
2022-08-05T21:39:34.522Z,101222.60
2022-08-05T21:42:31.129Z,101228.20
2022-08-05T21:44:56.897Z,101228.40
2022-08-05T21:47:55.200Z,101234.20
2022-08-05T21:50:15.322Z,101236.40
2022-08-05T21:52:47.120Z,101233.00
2022-08-05T21:55:15.327Z,101237.00
2022-08-05T21:57:43.215Z,101228.80
2022-08-05T22:00:12.848Z,101231.00
2022-08-05T22:02:42.459Z,101239.00
2022-08-05T22:05:12.516Z,101237.00
2022-08-05T22:07:58.751Z,101237.20
2022-08-05T22:10:28.683Z,101239.20
2022-08-05T22:13:08.836Z,101246.60
2022-08-05T22:16:00.341Z,101240.60
2022-08-05T22:18:35.769Z,101244.40
2022-08-05T22:21:04.865Z,101244.80
2022-08-05T22:24:09.001Z,101248.20
2022-08-05T22:26:59.950Z,101250.20
2022-08-05T22:29:30.715Z,101250.80
2022-08-05T22:32:02.813Z,101249.80
2022-08-05T22:34:33.234Z,101248.60
2022-08-05T22:37:03.937Z,101246.60
2022-08-05T22:39:34.459Z,101247.20
2022-08-05T22:42:10.828Z,101251.80
2022-08-05T22:44:48.395Z,101247.60
2022-08-05T22:47:29.017Z,101250.00
2022-08-05T22:50:23.296Z,101264.80
2022-08-05T22:52:52.824Z,101265.60
2022-08-05T22:55:23.099Z,101265.00
2022-08-05T22:57:53.389Z,101266.60
2022-08-05T23:00:23.629Z,101269.20
2022-08-05T23:02:53.565Z,101266.60
2022-08-05T23:05:22.784Z,101268.00
2022-08-05T23:07:52.367Z,101270.00
2022-08-05T23:10:23.884Z,101275.20
2022-08-05T23:12:55.098Z,101275.80
2022-08-05T23:15:35.267Z,101278.80
2022-08-05T23:18:05.901Z,101281.40
2022-08-05T23:20:39.721Z,101280.80
2022-08-05T23:23:08.232Z,101283.80
2022-08-05T23:25:53.411Z,101291.20
2022-08-05T23:28:26.889Z,101291.20
2022-08-05T23:31:15.772Z,101291.00
2022-08-05T23:34:04.360Z,101295.80
2022-08-05T23:36:38.568Z,101299.00
2022-08-05T23:39:08.533Z,101297.20
2022-08-05T23:41:37.359Z,101303.20
2022-08-05T23:44:09.137Z,101303.20
2022-08-05T23:46:37.581Z,101303.20
2022-08-05T23:49:16.466Z,101309.80
2022-08-05T23:52:08.982Z,101311.20
2022-08-05T23:54:38.571Z,101309.60
2022-08-05T23:57:08.246Z,101318.60
